sensor_id;sensor_type;location;lat;lon;timestamp;pressure;altitude;pressure_sealevel;temperature;humidity
6020;BME280;3038;51.122;6.840;2023-05-01T00:01:09;101403.59;;;11.88;66.12
6020;BME280;3038;51.122;6.840;2023-05-01T00:03:35;101404.69;;;11.95;66.08
6020;BME280;3038;51.122;6.840;2023-05-01T00:06:02;101402.41;;;12.00;66.20
6020;BME280;3038;51.122;6.840;2023-05-01T00:08:28;101398.97;;;12.07;65.42
6020;BME280;3038;51.122;6.840;2023-05-01T00:10:54;101391.50;;;12.11;65.32
6020;BME280;3038;51.122;6.840;2023-05-01T00:13:20;101390.50;;;12.12;65.53
6020;BME280;3038;51.122;6.840;2023-05-01T00:15:48;101384.72;;;12.17;65.09
6020;BME280;3038;51.122;6.840;2023-05-01T00:18:13;101381.31;;;12.24;64.76
6020;BME280;3038;51.122;6.840;2023-05-01T00:20:39;101381.53;;;12.31;64.59
6020;BME280;3038;51.122;6.840;2023-05-01T00:23:04;101383.72;;;12.35;64.46
6020;BME280;3038;51.122;6.840;2023-05-01T00:25:31;101379.94;;;12.38;64.65
6020;BME280;3038;51.122;6.840;2023-05-01T00:27:56;101378.59;;;12.42;65.35
6020;BME280;3038;51.122;6.840;2023-05-01T00:30:24;101371.78;;;12.40;65.22
6020;BME280;3038;51.122;6.840;2023-05-01T00:32:52;101369.09;;;12.40;65.47
6020;BME280;3038;51.122;6.840;2023-05-01T00:35:20;101366.06;;;12.34;65.13
6020;BME280;3038;51.122;6.840;2023-05-01T00:37:46;101377.09;;;12.40;64.86
6020;BME280;3038;51.122;6.840;2023-05-01T00:40:12;101374.44;;;12.40;64.89
6020;BME280;3038;51.122;6.840;2023-05-01T00:42:37;101360.94;;;12.41;64.47
6020;BME280;3038;51.122;6.840;2023-05-01T00:45:07;101363.31;;;12.44;64.65
6020;BME280;3038;51.122;6.840;2023-05-01T00:47:37;101354.16;;;12.47;65.12
6020;BME280;3038;51.122;6.840;2023-05-01T00:50:04;101355.16;;;12.46;65.38
6020;BME280;3038;51.122;6.840;2023-05-01T00:52:30;101351.66;;;12.45;65.14
6020;BME280;3038;51.122;6.840;2023-05-01T00:54:56;101349.31;;;12.42;65.22
6020;BME280;3038;51.122;6.840;2023-05-01T00:57:22;101342.78;;;12.37;65.94
6020;BME280;3038;51.122;6.840;2023-05-01T00:59:53;101341.13;;;12.35;65.68
6020;BME280;3038;51.122;6.840;2023-05-01T01:02:22;101343.09;;;12.33;65.00
6020;BME280;3038;51.122;6.840;2023-05-01T01:04:47;101334.97;;;12.35;64.81
6020;BME280;3038;51.122;6.840;2023-05-01T01:12:28;101322.00;;;12.40;63.93
6020;BME280;3038;51.122;6.840;2023-05-01T01:15:19;101320.34;;;12.39;64.21
6020;BME280;3038;51.122;6.840;2023-05-01T01:17:58;101319.81;;;12.35;64.24
6020;BME280;3038;51.122;6.840;2023-05-01T01:21:12;101310.31;;;12.33;64.26
6020;BME280;3038;51.122;6.840;2023-05-01T01:24:20;101312.28;;;12.31;64.16
6020;BME280;3038;51.122;6.840;2023-05-01T01:35:54;101303.88;;;12.18;64.44
6020;BME280;3038;51.122;6.840;2023-05-01T01:38:28;101306.88;;;12.15;64.49
6020;BME280;3038;51.122;6.840;2023-05-01T01:40:59;101300.72;;;12.14;64.37
6020;BME280;3038;51.122;6.840;2023-05-01T01:43:32;101300.72;;;12.14;64.87
6020;BME280;3038;51.122;6.840;2023-05-01T01:46:01;101291.03;;;12.13;64.80
6020;BME280;3038;51.122;6.840;2023-05-01T01:48:32;101290.06;;;12.14;64.70
6020;BME280;3038;51.122;6.840;2023-05-01T01:51:07;101284.88;;;12.13;64.70
6020;BME280;3038;51.122;6.840;2023-05-01T01:53:38;101283.50;;;12.08;64.64
6020;BME280;3038;51.122;6.840;2023-05-01T01:56:06;101282.00;;;12.06;64.72
6020;BME280;3038;51.122;6.840;2023-05-01T01:58:34;101278.69;;;12.04;64.93
6020;BME280;3038;51.122;6.840;2023-05-01T02:01:01;101275.63;;;11.99;65.11
6020;BME280;3038;51.122;6.840;2023-05-01T02:03:29;101279.28;;;11.98;65.21
6020;BME280;3038;51.122;6.840;2023-05-01T02:05:57;101271.31;;;11.98;65.12
6020;BME280;3038;51.122;6.840;2023-05-01T02:08:24;101274.78;;;11.98;65.12
6020;BME280;3038;51.122;6.840;2023-05-01T02:10:54;101270.31;;;11.99;65.24
6020;BME280;3038;51.122;6.840;2023-05-01T02:13:29;101265.97;;;11.98;65.17
6020;BME280;3038;51.122;6.840;2023-05-01T02:15:59;101267.28;;;11.94;65.73
6020;BME280;3038;51.122;6.840;2023-05-01T02:18:27;101264.94;;;11.91;65.64
6020;BME280;3038;51.122;6.840;2023-05-01T02:20:55;101266.41;;;11.85;66.33
6020;BME280;3038;51.122;6.840;2023-05-01T02:23:22;101252.53;;;11.81;66.20
6020;BME280;3038;51.122;6.840;2023-05-01T02:25:50;101254.22;;;11.82;65.99
6020;BME280;3038;51.122;6.840;2023-05-01T02:28:20;101251.56;;;11.82;67.07
6020;BME280;3038;51.122;6.840;2023-05-01T02:30:47;101254.81;;;11.76;66.93
6020;BME280;3038;51.122;6.840;2023-05-01T02:33:13;101252.47;;;11.73;66.77
6020;BME280;3038;51.122;6.840;2023-05-01T02:35:40;101240.97;;;11.73;66.80
6020;BME280;3038;51.122;6.840;2023-05-01T02:38:06;101247.47;;;11.70;66.90
6020;BME280;3038;51.122;6.840;2023-05-01T02:40:35;101245.09;;;11.67;67.03
6020;BME280;3038;51.122;6.840;2023-05-01T02:43:04;101243.09;;;11.69;66.45
6020;BME280;3038;51.122;6.840;2023-05-01T02:45:33;101228.84;;;11.70;66.64
6020;BME280;3038;51.122;6.840;2023-05-01T02:48:03;101232.16;;;11.72;66.51
6020;BME280;3038;51.122;6.840;2023-05-01T02:50:30;101228.50;;;11.73;66.24
6020;BME280;3038;51.122;6.840;2023-05-01T02:52:57;101223.19;;;11.73;66.56
6020;BME280;3038;51.122;6.840;2023-05-01T02:55:28;101223.19;;;11.73;66.56
6020;BME280;3038;51.122;6.840;2023-05-01T02:57:57;101222.38;;;11.73;66.65
6020;BME280;3038;51.122;6.840;2023-05-01T03:00:23;101217.50;;;11.68;66.89
6020;BME280;3038;51.122;6.840;2023-05-01T03:02:52;101214.19;;;11.66;66.91
6020;BME280;3038;51.122;6.840;2023-05-01T03:05:21;101210.53;;;11.67;67.34
6020;BME280;3038;51.122;6.840;2023-05-01T03:07:46;101202.53;;;11.67;66.80
6020;BME280;3038;51.122;6.840;2023-05-01T03:10:21;101204.38;;;11.67;66.91
6020;BME280;3038;51.122;6.840;2023-05-01T03:12:47;101199.34;;;11.64;66.91
6020;BME280;3038;51.122;6.840;2023-05-01T03:15:12;101197.16;;;11.59;67.53
6020;BME280;3038;51.122;6.840;2023-05-01T03:17:38;101194.19;;;11.62;67.27
6020;BME280;3038;51.122;6.840;2023-05-01T03:20:04;101188.88;;;11.62;67.29
6020;BME280;3038;51.122;6.840;2023-05-01T03:22:35;101185.53;;;11.60;67.59
6020;BME280;3038;51.122;6.840;2023-05-01T03:25:04;101186.84;;;11.56;67.37
6020;BME280;3038;51.122;6.840;2023-05-01T03:27:29;101185.03;;;11.56;67.41
6020;BME280;3038;51.122;6.840;2023-05-01T03:29:55;101183.31;;;11.55;67.64
6020;BME280;3038;51.122;6.840;2023-05-01T03:32:21;101178.16;;;11.54;67.72
6020;BME280;3038;51.122;6.840;2023-05-01T03:34:47;101181.66;;;11.54;67.46
6020;BME280;3038;51.122;6.840;2023-05-01T03:37:13;101173.84;;;11.53;67.36
6020;BME280;3038;51.122;6.840;2023-05-01T03:39:42;101175.84;;;11.51;67.59
6020;BME280;3038;51.122;6.840;2023-05-01T03:42:07;101170.53;;;11.51;67.50
6020;BME280;3038;51.122;6.840;2023-05-01T03:44:33;101172.31;;;11.50;67.53
6020;BME280;3038;51.122;6.840;2023-05-01T03:46:59;101168.81;;;11.50;67.45
6020;BME280;3038;51.122;6.840;2023-05-01T03:49:24;101170.81;;;11.48;67.73
6020;BME280;3038;51.122;6.840;2023-05-01T03:51:50;101172.47;;;11.49;67.61
6020;BME280;3038;51.122;6.840;2023-05-01T03:54:16;101168.16;;;11.48;67.30
6020;BME280;3038;51.122;6.840;2023-05-01T03:56:41;101170.81;;;11.48;67.52
6020;BME280;3038;51.122;6.840;2023-05-01T03:59:07;101168.31;;;11.46;67.79
6020;BME280;3038;51.122;6.840;2023-05-01T04:01:34;101166.97;;;11.42;67.82
6020;BME280;3038;51.122;6.840;2023-05-01T04:04:00;101166.41;;;11.39;68.11
6020;BME280;3038;51.122;6.840;2023-05-01T04:06:26;101162.22;;;11.36;67.82
6020;BME280;3038;51.122;6.840;2023-05-01T04:08:54;101166.41;;;11.39;67.99
6020;BME280;3038;51.122;6.840;2023-05-01T04:11:20;101164.59;;;11.39;67.92
6020;BME280;3038;51.122;6.840;2023-05-01T04:13:48;101168.09;;;11.40;67.57
6020;BME280;3038;51.122;6.840;2023-05-01T04:16:14;101157.16;;;11.43;67.66
6020;BME280;3038;51.122;6.840;2023-05-01T04:18:40;101162.47;;;11.43;68.03
6020;BME280;3038;51.122;6.840;2023-05-01T04:21:05;101152.13;;;11.40;67.78
6020;BME280;3038;51.122;6.840;2023-05-01T04:23:30;101158.81;;;11.44;67.67
6020;BME280;3038;51.122;6.840;2023-05-01T04:25:56;101160.47;;;11.45;67.74
6020;BME280;3038;51.122;6.840;2023-05-01T04:28:21;101157.34;;;11.49;67.57
6020;BME280;3038;51.122;6.840;2023-05-01T04:30:47;101162.38;;;11.52;67.84
6020;BME280;3038;51.122;6.840;2023-05-01T04:33:13;101157.25;;;11.59;67.52
6020;BME280;3038;51.122;6.840;2023-05-01T04:35:41;101156.25;;;11.60;67.46
6020;BME280;3038;51.122;6.840;2023-05-01T04:38:08;101152.63;;;11.61;67.51
6020;BME280;3038;51.122;6.840;2023-05-01T04:40:34;101157.63;;;11.64;67.29
6020;BME280;3038;51.122;6.840;2023-05-01T04:43:00;101153.84;;;11.67;67.39
6020;BME280;3038;51.122;6.840;2023-05-01T04:45:29;101150.19;;;11.68;67.29
6020;BME280;3038;51.122;6.840;2023-05-01T04:47:57;101153.50;;;11.70;67.01
6020;BME280;3038;51.122;6.840;2023-05-01T04:50:25;101154.03;;;11.73;67.01
6020;BME280;3038;51.122;6.840;2023-05-01T04:52:51;101159.88;;;11.77;67.02
6020;BME280;3038;51.122;6.840;2023-05-01T04:55:16;101148.94;;;11.80;66.91
6020;BME280;3038;51.122;6.840;2023-05-01T04:57:42;101153.13;;;11.82;66.51
6020;BME280;3038;51.122;6.840;2023-05-01T05:00:08;101145.50;;;11.88;66.73
6020;BME280;3038;51.122;6.840;2023-05-01T05:02:34;101146.56;;;11.95;66.59
6020;BME280;3038;51.122;6.840;2023-05-01T05:04:59;101147.38;;;11.95;66.24
6020;BME280;3038;51.122;6.840;2023-05-01T05:07:25;101155.22;;;11.97;66.06
6020;BME280;3038;51.122;6.840;2023-05-01T05:09:53;101148.94;;;12.06;65.33
6020;BME280;3038;51.122;6.840;2023-05-01T05:12:18;101150.81;;;12.14;65.38
6020;BME280;3038;51.122;6.840;2023-05-01T05:14:44;101155.16;;;12.23;65.00
6020;BME280;3038;51.122;6.840;2023-05-01T05:17:09;101151.03;;;12.28;65.18
6020;BME280;3038;51.122;6.840;2023-05-01T05:19:35;101151.88;;;12.37;64.46
6020;BME280;3038;51.122;6.840;2023-05-01T05:22:01;101148.75;;;12.42;64.69
6020;BME280;3038;51.122;6.840;2023-05-01T05:24:27;101151.75;;;12.47;64.43
6020;BME280;3038;51.122;6.840;2023-05-01T05:26:55;101156.78;;;12.50;64.03
6020;BME280;3038;51.122;6.840;2023-05-01T05:29:23;101159.59;;;12.56;63.74
6020;BME280;3038;51.122;6.840;2023-05-01T05:31:48;101149.16;;;12.71;63.45
6020;BME280;3038;51.122;6.840;2023-05-01T05:34:13;101153.16;;;12.75;63.61
6020;BME280;3038;51.122;6.840;2023-05-01T05:36:39;101153.50;;;12.80;63.06
6020;BME280;3038;51.122;6.840;2023-05-01T05:39:07;101154.03;;;12.84;63.23
6020;BME280;3038;51.122;6.840;2023-05-01T05:41:32;101153.69;;;12.95;63.59
6020;BME280;3038;51.122;6.840;2023-05-01T05:43:58;101147.88;;;13.00;63.34
6020;BME280;3038;51.122;6.840;2023-05-01T05:46:24;101146.22;;;13.07;62.83
6020;BME280;3038;51.122;6.840;2023-05-01T05:48:50;101149.06;;;13.13;62.75
6020;BME280;3038;51.122;6.840;2023-05-01T05:51:18;101150.91;;;13.21;62.54
6020;BME280;3038;51.122;6.840;2023-05-01T05:53:47;101153.44;;;13.23;62.12
6020;BME280;3038;51.122;6.840;2023-05-01T05:56:15;101147.78;;;13.26;62.57
6020;BME280;3038;51.122;6.840;2023-05-01T05:58:44;101146.91;;;13.33;62.08
6020;BME280;3038;51.122;6.840;2023-05-01T06:01:10;101146.28;;;13.40;61.67
6020;BME280;3038;51.122;6.840;2023-05-01T06:03:38;101145.25;;;13.41;61.83
6020;BME280;3038;51.122;6.840;2023-05-01T06:06:04;101144.41;;;13.48;62.16
6020;BME280;3038;51.122;6.840;2023-05-01T06:08:33;101146.91;;;13.58;61.22
6020;BME280;3038;51.122;6.840;2023-05-01T06:11:03;101149.56;;;13.66;61.32
6020;BME280;3038;51.122;6.840;2023-05-01T06:13:34;101155.41;;;13.70;61.11
6020;BME280;3038;51.122;6.840;2023-05-01T06:16:03;101145.38;;;13.72;61.18
6020;BME280;3038;51.122;6.840;2023-05-01T06:18:29;101143.22;;;13.75;60.76
6020;BME280;3038;51.122;6.840;2023-05-01T06:20:58;101153.19;;;13.81;60.55
6020;BME280;3038;51.122;6.840;2023-05-01T06:23:26;101149.81;;;13.96;60.21
6020;BME280;3038;51.122;6.840;2023-05-01T06:25:52;101149.50;;;13.99;59.75
6020;BME280;3038;51.122;6.840;2023-05-01T06:28:21;101149.00;;;13.95;59.32
6020;BME280;3038;51.122;6.840;2023-05-01T06:30:53;101150.81;;;14.03;59.94
6020;BME280;3038;51.122;6.840;2023-05-01T06:33:26;101152.28;;;14.13;59.87
6020;BME280;3038;51.122;6.840;2023-05-01T06:35:51;101148.91;;;14.20;59.25
6020;BME280;3038;51.122;6.840;2023-05-01T06:38:18;101149.22;;;14.25;58.66
6020;BME280;3038;51.122;6.840;2023-05-01T06:40:44;101150.38;;;14.30;58.36
6020;BME280;3038;51.122;6.840;2023-05-01T06:43:11;101149.00;;;14.34;58.43
6020;BME280;3038;51.122;6.840;2023-05-01T06:45:37;101139.16;;;14.35;58.50
6020;BME280;3038;51.122;6.840;2023-05-01T06:48:04;101144.28;;;14.45;58.61
6020;BME280;3038;51.122;6.840;2023-05-01T06:50:29;101144.97;;;14.47;58.01
6020;BME280;3038;51.122;6.840;2023-05-01T06:52:55;101149.31;;;14.48;57.68
6020;BME280;3038;51.122;6.840;2023-05-01T06:55:20;101149.59;;;14.61;57.36
6020;BME280;3038;51.122;6.840;2023-05-01T06:57:46;101143.53;;;14.67;57.43
6020;BME280;3038;51.122;6.840;2023-05-01T07:00:12;101140.81;;;14.75;57.02
6020;BME280;3038;51.122;6.840;2023-05-01T07:02:37;101143.38;;;14.91;56.86
6020;BME280;3038;51.122;6.840;2023-05-01T07:05:04;101142.03;;;14.96;56.68
6020;BME280;3038;51.122;6.840;2023-05-01T07:07:33;101145.34;;;14.98;56.73
6020;BME280;3038;51.122;6.840;2023-05-01T07:09:59;101142.59;;;15.06;56.91
6020;BME280;3038;51.122;6.840;2023-05-01T07:12:24;101140.34;;;15.17;56.32
6020;BME280;3038;51.122;6.840;2023-05-01T07:14:49;101138.81;;;15.23;56.39
6020;BME280;3038;51.122;6.840;2023-05-01T07:17:15;101132.63;;;15.37;56.05
6020;BME280;3038;51.122;6.840;2023-05-01T07:19:42;101130.84;;;15.53;55.96
6020;BME280;3038;51.122;6.840;2023-05-01T07:22:08;101128.38;;;15.66;55.95
6020;BME280;3038;51.122;6.840;2023-05-01T07:24:33;101132.28;;;15.78;55.04
6020;BME280;3038;51.122;6.840;2023-05-01T07:26:58;101141.34;;;15.92;55.09
6020;BME280;3038;51.122;6.840;2023-05-01T07:29:24;101134.50;;;15.89;54.29
6020;BME280;3038;51.122;6.840;2023-05-01T07:31:49;101131.81;;;15.89;54.04
6020;BME280;3038;51.122;6.840;2023-05-01T07:34:15;101132.19;;;15.86;54.15
6020;BME280;3038;51.122;6.840;2023-05-01T07:36:42;101133.78;;;15.96;53.48
6020;BME280;3038;51.122;6.840;2023-05-01T07:39:09;101125.72;;;16.10;53.18
6020;BME280;3038;51.122;6.840;2023-05-01T07:41:35;101130.69;;;16.13;53.19
6020;BME280;3038;51.122;6.840;2023-05-01T07:44:00;101130.16;;;16.18;53.25
6020;BME280;3038;51.122;6.840;2023-05-01T07:46:28;101124.03;;;16.24;52.66
6020;BME280;3038;51.122;6.840;2023-05-01T07:48:53;101119.97;;;16.28;52.87
6020;BME280;3038;51.122;6.840;2023-05-01T07:51:19;101116.00;;;16.24;52.41
6020;BME280;3038;51.122;6.840;2023-05-01T07:53:44;101118.31;;;16.27;52.39
6020;BME280;3038;51.122;6.840;2023-05-01T07:56:11;101123.47;;;16.29;51.71
6020;BME280;3038;51.122;6.840;2023-05-01T07:58:37;101119.88;;;16.36;52.23
6020;BME280;3038;51.122;6.840;2023-05-01T08:01:02;101118.47;;;16.40;52.25
6020;BME280;3038;51.122;6.840;2023-05-01T08:03:29;101123.78;;;16.55;52.09
6020;BME280;3038;51.122;6.840;2023-05-01T08:05:55;101116.28;;;16.65;51.21
6020;BME280;3038;51.122;6.840;2023-05-01T08:08:22;101115.38;;;16.73;50.89
6020;BME280;3038;51.122;6.840;2023-05-01T08:10:47;101111.91;;;16.79;50.74
6020;BME280;3038;51.122;6.840;2023-05-01T08:13:13;101121.34;;;16.96;50.42
6020;BME280;3038;51.122;6.840;2023-05-01T08:15:39;101116.66;;;16.99;49.88
6020;BME280;3038;51.122;6.840;2023-05-01T08:18:09;101113.31;;;17.18;49.93
6020;BME280;3038;51.122;6.840;2023-05-01T08:20:35;101123.25;;;17.24;49.68
6020;BME280;3038;51.122;6.840;2023-05-01T08:23:03;101111.16;;;17.35;50.04
6020;BME280;3038;51.122;6.840;2023-05-01T08:25:28;101114.66;;;17.35;49.17
6020;BME280;3038;51.122;6.840;2023-05-01T08:27:56;101117.22;;;17.43;48.70
6020;BME280;3038;51.122;6.840;2023-05-01T08:30:21;101117.72;;;17.54;48.50
6020;BME280;3038;51.122;6.840;2023-05-01T08:32:50;101119.66;;;17.66;49.40
6020;BME280;3038;51.122;6.840;2023-05-01T08:35:15;101108.84;;;17.81;48.80
6020;BME280;3038;51.122;6.840;2023-05-01T08:37:44;101111.00;;;17.99;48.70
6020;BME280;3038;51.122;6.840;2023-05-01T08:40:10;101117.75;;;17.88;48.05
6020;BME280;3038;51.122;6.840;2023-05-01T08:42:36;101103.72;;;17.93;47.42
6020;BME280;3038;51.122;6.840;2023-05-01T08:45:08;101111.78;;;17.93;47.22
6020;BME280;3038;51.122;6.840;2023-05-01T08:47:38;101114.09;;;18.03;47.06
6020;BME280;3038;51.122;6.840;2023-05-01T08:50:08;101123.19;;;18.49;46.22
6020;BME280;3038;51.122;6.840;2023-05-01T08:52:39;101114.31;;;18.56;46.39
6020;BME280;3038;51.122;6.840;2023-05-01T08:55:12;101121.94;;;18.45;46.33
6020;BME280;3038;51.122;6.840;2023-05-01T08:57:45;101119.44;;;18.37;46.16
6020;BME280;3038;51.122;6.840;2023-05-01T09:00:16;101123.56;;;18.33;46.47
6020;BME280;3038;51.122;6.840;2023-05-01T09:02:47;101126.09;;;18.48;46.41
6020;BME280;3038;51.122;6.840;2023-05-01T09:05:18;101121.56;;;18.55;45.90
6020;BME280;3038;51.122;6.840;2023-05-01T09:07:47;101133.13;;;18.56;47.28
6020;BME280;3038;51.122;6.840;2023-05-01T09:10:16;101129.00;;;18.53;46.10
6020;BME280;3038;51.122;6.840;2023-05-01T09:12:46;101133.19;;;18.62;45.94
6020;BME280;3038;51.122;6.840;2023-05-01T09:15:13;101121.44;;;18.77;46.00
6020;BME280;3038;51.122;6.840;2023-05-01T09:17:50;101121.28;;;18.91;45.32
6020;BME280;3038;51.122;6.840;2023-05-01T09:20:23;101113.00;;;19.06;45.58
6020;BME280;3038;51.122;6.840;2023-05-01T09:22:49;101116.53;;;19.26;45.04
6020;BME280;3038;51.122;6.840;2023-05-01T15:31:41;101135.91;;;13.53;72.25
6020;BME280;3038;51.122;6.840;2023-05-01T15:34:06;101128.72;;;13.53;72.63
6020;BME280;3038;51.122;6.840;2023-05-01T15:36:32;101139.22;;;13.63;72.09
6020;BME280;3038;51.122;6.840;2023-05-01T15:38:57;101147.84;;;13.81;74.69
6020;BME280;3038;51.122;6.840;2023-05-01T15:41:22;101145.47;;;14.03;75.26
6020;BME280;3038;51.122;6.840;2023-05-01T15:43:48;101141.94;;;14.10;73.33
6020;BME280;3038;51.122;6.840;2023-05-01T15:46:13;101150.41;;;14.22;73.88
6020;BME280;3038;51.122;6.840;2023-05-01T15:48:39;101151.34;;;14.37;70.20
6020;BME280;3038;51.122;6.840;2023-05-01T15:51:04;101150.47;;;14.53;70.89
6020;BME280;3038;51.122;6.840;2023-05-01T15:53:30;101154.84;;;14.77;72.89
6020;BME280;3038;51.122;6.840;2023-05-01T15:55:56;101165.59;;;14.92;71.38
6020;BME280;3038;51.122;6.840;2023-05-01T15:58:22;101174.09;;;14.96;70.95
6020;BME280;3038;51.122;6.840;2023-05-01T16:00:48;101174.69;;;15.06;70.39
6020;BME280;3038;51.122;6.840;2023-05-01T16:03:13;101174.41;;;15.24;71.78
6020;BME280;3038;51.122;6.840;2023-05-01T16:05:39;101174.47;;;15.38;73.05
6020;BME280;3038;51.122;6.840;2023-05-01T16:08:05;101172.41;;;15.40;70.21
6020;BME280;3038;51.122;6.840;2023-05-01T16:10:34;101163.31;;;15.50;72.18
6020;BME280;3038;51.122;6.840;2023-05-01T16:13:05;101165.16;;;15.72;69.66
6020;BME280;3038;51.122;6.840;2023-05-01T16:15:32;101168.00;;;15.85;68.45
6020;BME280;3038;51.122;6.840;2023-05-01T16:17:57;101171.53;;;15.86;69.09
6020;BME280;3038;51.122;6.840;2023-05-01T16:20:25;101170.31;;;15.88;67.66
6020;BME280;3038;51.122;6.840;2023-05-01T16:22:53;101172.94;;;15.97;67.71
6020;BME280;3038;51.122;6.840;2023-05-01T16:25:18;101170.59;;;16.08;66.97
6020;BME280;3038;51.122;6.840;2023-05-01T16:27:44;101170.81;;;16.07;67.70
6020;BME280;3038;51.122;6.840;2023-05-01T16:30:11;101176.78;;;16.09;67.49
6020;BME280;3038;51.122;6.840;2023-05-01T16:32:38;101174.50;;;16.06;67.04
6020;BME280;3038;51.122;6.840;2023-05-01T16:35:05;101175.88;;;16.02;67.95
6020;BME280;3038;51.122;6.840;2023-05-01T16:37:32;101173.63;;;15.90;69.09
6020;BME280;3038;51.122;6.840;2023-05-01T16:39:58;101175.13;;;15.78;69.46
6020;BME280;3038;51.122;6.840;2023-05-01T16:42:24;101163.84;;;15.68;70.30
6020;BME280;3038;51.122;6.840;2023-05-01T16:44:49;101161.94;;;15.54;70.68
6020;BME280;3038;51.122;6.840;2023-05-01T16:47:14;101155.63;;;15.47;71.23
6020;BME280;3038;51.122;6.840;2023-05-01T16:49:41;101170.75;;;15.39;71.20
6020;BME280;3038;51.122;6.840;2023-05-01T16:52:07;101178.97;;;15.38;71.70
6020;BME280;3038;51.122;6.840;2023-05-01T16:54:34;101182.47;;;15.38;71.76
6020;BME280;3038;51.122;6.840;2023-05-01T16:57:03;101187.53;;;15.33;73.13
6020;BME280;3038;51.122;6.840;2023-05-01T16:59:28;101185.47;;;15.21;73.16
6020;BME280;3038;51.122;6.840;2023-05-01T17:01:54;101188.03;;;15.14;72.73
6020;BME280;3038;51.122;6.840;2023-05-01T17:04:19;101169.34;;;15.06;72.45
6020;BME280;3038;51.122;6.840;2023-05-01T17:06:45;101168.56;;;14.97;73.10
6020;BME280;3038;51.122;6.840;2023-05-01T17:09:10;101165.09;;;14.88;72.72
6020;BME280;3038;51.122;6.840;2023-05-01T17:11:35;101162.50;;;14.80;72.45
6020;BME280;3038;51.122;6.840;2023-05-01T17:14:01;101169.00;;;14.86;72.26
6020;BME280;3038;51.122;6.840;2023-05-01T17:16:27;101187.88;;;14.84;72.99
6020;BME280;3038;51.122;6.840;2023-05-01T17:18:52;101188.34;;;14.88;71.88
6020;BME280;3038;51.122;6.840;2023-05-01T17:21:18;101192.47;;;15.22;70.85
6020;BME280;3038;51.122;6.840;2023-05-01T17:23:44;101175.88;;;15.26;70.00
6020;BME280;3038;51.122;6.840;2023-05-01T17:26:09;101182.63;;;15.37;69.96
6020;BME280;3038;51.122;6.840;2023-05-01T17:28:34;101179.38;;;15.73;69.20
6020;BME280;3038;51.122;6.840;2023-05-01T17:31:00;101181.69;;;16.35;67.61
6020;BME280;3038;51.122;6.840;2023-05-01T17:33:28;101189.56;;;16.87;65.56
6020;BME280;3038;51.122;6.840;2023-05-01T17:35:54;101190.25;;;16.60;66.12
6020;BME280;3038;51.122;6.840;2023-05-01T17:38:21;101190.72;;;16.34;66.62
6020;BME280;3038;51.122;6.840;2023-05-01T17:40:46;101199.31;;;16.14;67.39
6020;BME280;3038;51.122;6.840;2023-05-01T17:43:12;101206.78;;;15.89;68.05
6020;BME280;3038;51.122;6.840;2023-05-01T17:45:37;101213.50;;;15.71;69.07
6020;BME280;3038;51.122;6.840;2023-05-01T17:48:03;101211.78;;;15.55;69.54
6020;BME280;3038;51.122;6.840;2023-05-01T17:50:28;101218.72;;;15.41;68.88
6020;BME280;3038;51.122;6.840;2023-05-01T17:52:54;101215.19;;;15.26;69.32
6020;BME280;3038;51.122;6.840;2023-05-01T17:55:20;101219.44;;;15.12;69.73
6020;BME280;3038;51.122;6.840;2023-05-01T17:57:46;101218.88;;;14.94;70.65
6020;BME280;3038;51.122;6.840;2023-05-01T18:00:12;101219.81;;;14.78;70.94
6020;BME280;3038;51.122;6.840;2023-05-01T18:02:37;101225.41;;;14.60;71.98
6020;BME280;3038;51.122;6.840;2023-05-01T18:05:04;101233.97;;;14.47;73.22
6020;BME280;3038;51.122;6.840;2023-05-01T18:07:30;101224.63;;;14.35;73.99
6020;BME280;3038;51.122;6.840;2023-05-01T18:09:56;101230.81;;;14.35;74.50
6020;BME280;3038;51.122;6.840;2023-05-01T18:12:22;101235.94;;;14.45;74.67
6020;BME280;3038;51.122;6.840;2023-05-01T18:14:48;101235.31;;;14.51;74.10
6020;BME280;3038;51.122;6.840;2023-05-01T18:17:14;101243.34;;;14.35;73.99
6020;BME280;3038;51.122;6.840;2023-05-01T18:19:39;101240.56;;;14.12;75.01
6020;BME280;3038;51.122;6.840;2023-05-01T18:22:05;101243.59;;;14.01;75.86
6020;BME280;3038;51.122;6.840;2023-05-01T18:24:31;101245.94;;;13.87;76.39
6020;BME280;3038;51.122;6.840;2023-05-01T18:26:57;101244.63;;;13.75;76.76
6020;BME280;3038;51.122;6.840;2023-05-01T18:29:24;101240.94;;;13.68;77.16
6020;BME280;3038;51.122;6.840;2023-05-01T18:31:51;101242.44;;;13.62;77.76
6020;BME280;3038;51.122;6.840;2023-05-01T18:34:17;101248.13;;;13.59;77.74
6020;BME280;3038;51.122;6.840;2023-05-01T18:36:44;101249.47;;;13.55;77.00
6020;BME280;3038;51.122;6.840;2023-05-01T18:39:12;101251.78;;;13.50;76.46
6020;BME280;3038;51.122;6.840;2023-05-01T18:41:37;101255.63;;;13.48;76.05
6020;BME280;3038;51.122;6.840;2023-05-01T18:44:03;101265.63;;;13.46;75.89
6020;BME280;3038;51.122;6.840;2023-05-01T18:46:29;101265.63;;;13.46;76.22
6020;BME280;3038;51.122;6.840;2023-05-01T18:48:54;101265.13;;;13.42;76.01
6020;BME280;3038;51.122;6.840;2023-05-01T18:51:20;101261.94;;;13.38;75.76
6020;BME280;3038;51.122;6.840;2023-05-01T18:53:46;101266.59;;;13.36;76.12
6020;BME280;3038;51.122;6.840;2023-05-01T18:56:11;101271.63;;;13.40;76.27
6020;BME280;3038;51.122;6.840;2023-05-01T18:58:37;101282.44;;;13.38;76.23
6020;BME280;3038;51.122;6.840;2023-05-01T19:01:04;101272.78;;;13.37;76.31
6020;BME280;3038;51.122;6.840;2023-05-01T19:03:30;101287.63;;;13.40;76.78
6020;BME280;3038;51.122;6.840;2023-05-01T19:05:56;101281.28;;;13.41;77.28
6020;BME280;3038;51.122;6.840;2023-05-01T19:08:22;101287.63;;;13.40;77.35
6020;BME280;3038;51.122;6.840;2023-05-01T19:10:47;101288.59;;;13.30;76.99
6020;BME280;3038;51.122;6.840;2023-05-01T19:13:15;101288.59;;;13.30;77.36
6020;BME280;3038;51.122;6.840;2023-05-01T19:15:41;101291.59;;;13.27;77.27
6020;BME280;3038;51.122;6.840;2023-05-01T19:18:07;101295.44;;;13.25;77.34
6020;BME280;3038;51.122;6.840;2023-05-01T19:20:33;101295.19;;;13.18;77.61
6020;BME280;3038;51.122;6.840;2023-05-01T19:22:59;101298.22;;;13.15;77.93
6020;BME280;3038;51.122;6.840;2023-05-01T19:25:24;101299.03;;;13.16;77.84
6020;BME280;3038;51.122;6.840;2023-05-01T19:27:50;101309.53;;;13.17;77.89
6020;BME280;3038;51.122;6.840;2023-05-01T19:30:30;101301.72;;;13.16;78.00